createdAt,value
2023-02-19T00:01:49.066Z,6.28
2023-02-19T00:04:21.765Z,6.38
2023-02-19T00:06:49.069Z,5.85
2023-02-19T00:09:17.059Z,6.05
2023-02-19T00:11:43.800Z,5.47
2023-02-19T00:14:11.470Z,5.93
2023-02-19T00:16:39.465Z,5.70
2023-02-19T00:19:08.245Z,6.70
2023-02-19T00:21:34.776Z,6.05
2023-02-19T00:24:03.641Z,7.40
2023-02-19T00:26:30.619Z,7.38
2023-02-19T00:28:58.318Z,7.30
2023-02-19T00:31:25.820Z,6.57
2023-02-19T00:33:54.507Z,6.88
2023-02-19T00:36:21.615Z,5.70
2023-02-19T00:38:48.796Z,6.70
2023-02-19T00:41:19.658Z,7.03
2023-02-19T00:43:55.187Z,6.20
2023-02-19T00:46:24.239Z,6.10
2023-02-19T00:48:52.612Z,6.15
2023-02-19T00:51:20.172Z,5.90
2023-02-19T00:53:46.620Z,6.15
2023-02-19T00:56:13.191Z,5.53
2023-02-19T00:58:39.783Z,6.22
2023-02-19T01:01:06.727Z,6.03
2023-02-19T01:03:34.169Z,6.38
2023-02-19T01:06:01.179Z,5.88
2023-02-19T01:08:28.234Z,7.32
2023-02-19T01:10:54.689Z,7.13
2023-02-19T01:13:21.243Z,6.95
2023-02-19T01:15:47.723Z,7.28
2023-02-19T01:18:14.203Z,6.90
2023-02-19T01:20:42.683Z,7.45
2023-02-19T01:23:11.258Z,7.63
2023-02-19T01:25:42.667Z,7.20
2023-02-19T01:28:10.484Z,7.72
2023-02-19T01:30:38.131Z,8.30
2023-02-19T01:33:08.391Z,7.70
2023-02-19T01:35:38.556Z,7.07
2023-02-19T01:38:05.131Z,7.88
2023-02-19T01:40:31.566Z,7.43
2023-02-19T01:42:57.998Z,6.15
2023-02-19T01:45:35.103Z,6.57
2023-02-19T01:48:09.416Z,7.15
2023-02-19T01:50:44.590Z,7.55
2023-02-19T01:53:12.361Z,7.28
2023-02-19T01:55:39.137Z,7.22
2023-02-19T01:58:05.996Z,7.97
2023-02-19T02:00:33.659Z,7.68
2023-02-19T02:03:00.766Z,7.85
2023-02-19T02:05:38.347Z,7.78
2023-02-19T02:08:23.579Z,6.97
2023-02-19T02:10:50.516Z,8.27
2023-02-19T02:13:17.337Z,8.68
2023-02-19T02:15:56.774Z,7.32
2023-02-19T02:18:29.547Z,8.15
2023-02-19T02:21:33.703Z,7.93
2023-02-19T02:24:05.530Z,7.88
2023-02-19T02:27:12.641Z,7.50
2023-02-19T02:30:05.555Z,7.15
2023-02-19T02:32:58.370Z,6.43
2023-02-19T02:35:28.517Z,5.82
2023-02-19T02:37:58.640Z,6.47
2023-02-19T02:40:25.482Z,5.82
2023-02-19T02:42:51.980Z,5.88
2023-02-19T02:45:36.878Z,5.40
2023-02-19T02:48:37.092Z,5.30
2023-02-19T02:51:10.093Z,3.92
2023-02-19T02:54:04.577Z,4.43
2023-02-19T02:56:31.203Z,4.25
2023-02-19T02:58:58.962Z,4.22
2023-02-19T03:01:48.542Z,3.97
2023-02-19T03:04:22.569Z,4.38
2023-02-19T03:06:49.807Z,4.00
2023-02-19T03:09:22.520Z,3.85
2023-02-19T03:12:08.666Z,3.53
2023-02-19T03:15:00.890Z,3.97
2023-02-19T03:18:08.238Z,3.78
2023-02-19T03:20:37.261Z,3.90
2023-02-19T03:23:05.257Z,4.43
2023-02-19T03:25:51.160Z,4.97
2023-02-19T03:28:20.123Z,4.10
2023-02-19T03:30:52.547Z,4.50
2023-02-19T03:33:22.739Z,5.30
2023-02-19T03:35:58.734Z,5.13
2023-02-19T03:38:30.121Z,5.60
2023-02-19T03:41:04.259Z,5.15
2023-02-19T03:43:54.016Z,4.10
2023-02-19T03:46:25.903Z,6.55
2023-02-19T03:48:57.225Z,4.68
2023-02-19T03:51:42.082Z,4.68
2023-02-19T03:54:29.264Z,4.45
2023-02-19T03:57:03.766Z,5.10
2023-02-19T03:59:32.808Z,4.95
2023-02-19T04:02:06.659Z,5.28
2023-02-19T04:04:39.363Z,4.55
2023-02-19T04:07:06.026Z,5.30
2023-02-19T04:09:41.852Z,5.22
2023-02-19T04:12:08.934Z,4.70
2023-02-19T04:14:47.564Z,5.07
2023-02-19T04:17:19.680Z,4.57
2023-02-19T04:19:48.489Z,4.50
2023-02-19T04:22:16.163Z,4.88
2023-02-19T04:24:48.306Z,5.18
2023-02-19T04:27:14.874Z,7.03
2023-02-19T04:29:41.466Z,6.22
2023-02-19T04:32:10.814Z,5.00
2023-02-19T04:34:37.314Z,4.85
2023-02-19T04:37:03.867Z,5.22
2023-02-19T04:39:30.455Z,4.93
2023-02-19T04:41:56.932Z,4.50
2023-02-19T04:44:23.442Z,4.47
2023-02-19T04:46:50.069Z,5.10
2023-02-19T04:49:16.549Z,4.95
2023-02-19T04:51:42.942Z,4.50
2023-02-19T04:54:09.501Z,4.22
2023-02-19T04:56:36.002Z,4.53
2023-02-19T04:59:02.632Z,4.90
2023-02-19T05:01:29.128Z,4.10
2023-02-19T05:03:55.598Z,4.90
2023-02-19T05:06:22.052Z,4.13
2023-02-19T05:08:48.686Z,4.40
2023-02-19T05:11:15.221Z,4.13
2023-02-19T05:13:42.727Z,3.92
2023-02-19T05:16:15.901Z,4.53
2023-02-19T05:18:43.338Z,3.80
2023-02-19T05:21:11.444Z,4.40
2023-02-19T05:23:38.769Z,4.78
2023-02-19T05:26:07.224Z,4.13
2023-02-19T05:28:33.956Z,6.55
2023-02-19T05:31:05.115Z,4.15
2023-02-19T05:33:31.551Z,4.90
2023-02-19T05:35:58.072Z,4.28
2023-02-19T05:38:24.711Z,5.00
2023-02-19T05:40:51.582Z,4.63
2023-02-19T05:43:18.039Z,5.22
2023-02-19T05:45:44.487Z,5.65
2023-02-19T05:48:12.873Z,5.82
2023-02-19T05:50:39.980Z,5.18
2023-02-19T05:53:06.594Z,5.97
2023-02-19T05:55:36.718Z,5.82
2023-02-19T05:58:03.549Z,5.68
2023-02-19T06:00:30.471Z,5.32
2023-02-19T06:02:56.877Z,6.18
2023-02-19T06:05:23.375Z,6.68
2023-02-19T06:07:50.514Z,7.47
2023-02-19T06:10:17.495Z,8.55
2023-02-19T06:12:44.067Z,8.25
2023-02-19T06:15:10.702Z,8.15
2023-02-19T06:17:37.200Z,7.85
2023-02-19T06:20:03.862Z,7.82
2023-02-19T06:22:31.410Z,7.78
2023-02-19T06:24:58.090Z,8.07
2023-02-19T06:27:24.525Z,7.90
2023-02-19T06:29:50.988Z,8.23
2023-02-19T06:32:17.598Z,7.47
2023-02-19T06:34:44.119Z,9.05
2023-02-19T06:37:10.553Z,8.70
2023-02-19T06:39:37.097Z,9.30
2023-02-19T06:42:03.717Z,8.98
2023-02-19T06:44:30.172Z,8.88
2023-02-19T06:46:56.684Z,8.70
2023-02-19T06:49:23.175Z,9.25
2023-02-19T06:51:49.621Z,8.52
2023-02-19T06:54:16.051Z,9.52
2023-02-19T06:56:46.085Z,8.68
2023-02-19T06:59:16.934Z,8.93
2023-02-19T07:04:10.407Z,7.80
2023-02-19T07:06:38.810Z,8.20
2023-02-19T07:09:06.887Z,8.82
2023-02-19T07:11:34.832Z,9.13
2023-02-19T07:14:03.537Z,8.43
2023-02-19T07:16:30.410Z,9.32
2023-02-19T07:18:57.985Z,8.07
2023-02-19T07:21:24.484Z,7.90
2023-02-19T07:23:51.014Z,7.95
2023-02-19T07:26:19.776Z,8.48
2023-02-19T07:28:48.233Z,8.00
2023-02-19T07:31:17.583Z,7.78
2023-02-19T07:33:45.187Z,7.75
2023-02-19T07:36:12.123Z,7.93
2023-02-19T07:38:38.623Z,7.90
2023-02-19T07:41:05.760Z,9.45
2023-02-19T07:43:34.708Z,9.15
2023-02-19T07:46:09.845Z,10.32
2023-02-19T07:48:37.319Z,8.65
2023-02-19T07:51:05.466Z,8.93
2023-02-19T07:53:33.572Z,10.07
2023-02-19T07:56:04.386Z,9.88
2023-02-19T07:58:31.616Z,10.13
2023-02-19T08:00:58.395Z,11.15
2023-02-19T08:03:24.948Z,12.02
2023-02-19T08:05:53.806Z,11.05
2023-02-19T08:08:20.339Z,9.50
2023-02-19T08:11:05.511Z,11.63
2023-02-19T08:13:32.200Z,11.57
2023-02-19T08:16:15.957Z,11.18
2023-02-19T08:18:44.530Z,11.88
2023-02-19T08:21:11.626Z,11.32
2023-02-19T08:23:38.561Z,11.00
2023-02-19T08:26:05.550Z,11.18
2023-02-19T08:28:32.409Z,11.88
2023-02-19T08:31:01.593Z,11.10
2023-02-19T08:33:28.236Z,9.70
2023-02-19T08:35:55.111Z,9.95
2023-02-19T08:38:21.759Z,10.48
2023-02-19T08:40:48.243Z,12.23
2023-02-19T08:43:16.986Z,11.38
2023-02-19T08:45:45.137Z,11.18
2023-02-19T08:48:11.982Z,11.77
2023-02-19T08:50:38.696Z,11.98
2023-02-19T08:53:06.231Z,11.10
2023-02-19T08:55:33.280Z,11.27
2023-02-19T08:58:04.117Z,10.38
2023-02-19T09:00:30.550Z,11.73
2023-02-19T09:02:58.232Z,10.52
2023-02-19T09:05:24.775Z,9.85
2023-02-19T09:07:51.233Z,11.00
2023-02-19T09:10:17.683Z,11.43
2023-02-19T09:12:44.098Z,11.43
2023-02-19T09:15:10.593Z,10.90
2023-02-19T09:17:37.062Z,10.65
2023-02-19T09:20:04.153Z,9.68
2023-02-19T09:22:30.701Z,9.77
2023-02-19T09:24:57.105Z,11.18
2023-02-19T09:27:23.519Z,9.88
2023-02-19T09:29:49.948Z,9.73
2023-02-19T09:32:19.140Z,9.27
2023-02-19T09:34:45.832Z,9.50
2023-02-19T09:37:12.311Z,8.77
2023-02-19T09:39:39.846Z,5.82
2023-02-19T09:42:15.908Z,2.40
2023-02-19T09:44:44.713Z,2.72
2023-02-19T09:47:19.937Z,2.13
2023-02-19T09:49:52.140Z,1.83
2023-02-19T09:52:41.512Z,1.58
2023-02-19T09:55:31.660Z,1.77
2023-02-19T09:57:59.503Z,1.65
2023-02-19T10:00:28.032Z,1.65
2023-02-19T10:03:05.855Z,1.77
2023-02-19T10:05:33.563Z,2.53
2023-02-19T10:08:00.425Z,2.60
2023-02-19T10:10:30.305Z,2.85
2023-02-19T10:13:10.282Z,2.70
2023-02-19T10:15:46.277Z,3.15
2023-02-19T10:18:12.900Z,2.72
2023-02-19T10:20:40.265Z,2.55
2023-02-19T10:23:08.144Z,2.53
2023-02-19T10:25:42.545Z,2.30
2023-02-19T10:28:22.164Z,3.03
2023-02-19T10:30:54.423Z,2.47
2023-02-19T10:33:22.132Z,2.50
2023-02-19T10:36:06.694Z,2.80
2023-02-19T10:38:39.447Z,2.30
2023-02-19T10:41:17.692Z,3.10
2023-02-19T10:43:57.420Z,3.10
2023-02-19T10:46:33.582Z,3.05
2023-02-19T10:51:47.990Z,2.45
2023-02-19T10:54:20.932Z,2.90
2023-02-19T10:56:47.488Z,3.13
2023-02-19T10:59:28.645Z,2.55
2023-02-19T11:01:58.210Z,2.28
2023-02-19T11:04:26.623Z,2.25
2023-02-19T11:06:53.247Z,1.83
2023-02-19T11:09:22.628Z,1.90
2023-02-19T11:11:54.381Z,1.90
2023-02-19T11:14:24.186Z,2.30
2023-02-19T11:16:53.356Z,2.42
2023-02-19T11:19:48.585Z,2.83
2023-02-19T11:22:35.745Z,2.35
2023-02-19T11:25:07.315Z,2.50
2023-02-19T11:27:33.796Z,2.58
2023-02-19T11:30:33.973Z,2.63
2023-02-19T11:33:20.274Z,2.80
2023-02-19T11:35:48.198Z,2.90
2023-02-19T11:38:17.079Z,3.10
2023-02-19T11:41:03.221Z,2.78
2023-02-19T11:44:12.241Z,3.58
2023-02-19T11:46:50.856Z,2.88
2023-02-19T11:49:27.038Z,2.03
2023-02-19T11:54:49.250Z,1.52
2023-02-19T11:57:38.544Z,1.95
2023-02-19T12:00:27.911Z,1.50
2023-02-19T12:03:17.896Z,1.42
2023-02-19T12:06:00.086Z,1.63
2023-02-19T12:09:02.921Z,1.90
2023-02-19T12:11:40.437Z,1.70
2023-02-19T12:14:39.792Z,1.90
2023-02-19T12:17:33.965Z,1.55
2023-02-19T12:20:14.076Z,1.85
2023-02-19T12:22:50.105Z,1.80
2023-02-19T12:25:25.379Z,2.22
2023-02-19T12:28:01.389Z,1.98
2023-02-19T12:30:46.669Z,1.98
2023-02-19T12:33:19.182Z,2.08
2023-02-19T12:36:20.894Z,2.10
2023-02-19T12:39:09.034Z,2.00
2023-02-19T12:41:49.896Z,2.20
2023-02-19T12:44:56.129Z,2.17
2023-02-19T12:58:05.854Z,1.70
2023-02-19T13:00:58.912Z,2.20
2023-02-19T14:51:42.354Z,1.10
2023-02-19T14:54:16.555Z,1.13
2023-02-19T14:56:45.304Z,1.00
2023-02-19T14:59:11.647Z,1.10
2023-02-19T15:01:38.829Z,1.15
2023-02-19T15:04:05.738Z,1.13
2023-02-19T15:06:34.450Z,1.10
2023-02-19T15:09:05.406Z,1.10
2023-02-19T15:11:32.520Z,1.40
2023-02-19T15:14:02.210Z,1.30
2023-02-19T15:16:29.689Z,1.30
2023-02-19T15:18:58.175Z,1.38
2023-02-19T15:21:26.507Z,2.13
2023-02-19T15:23:58.561Z,1.48
2023-02-19T15:26:35.879Z,1.33
2023-02-19T15:29:11.087Z,1.30
2023-02-19T15:31:49.501Z,1.45
2023-02-19T15:34:27.347Z,1.73
2023-02-19T15:36:59.040Z,1.42
2023-02-19T15:39:41.922Z,1.48
2023-02-19T15:42:11.036Z,1.35
2023-02-19T15:44:52.214Z,1.50
2023-02-19T15:47:51.791Z,1.70
2023-02-19T15:50:32.044Z,1.77
2023-02-19T15:53:09.131Z,1.63
2023-02-19T15:55:38.545Z,1.92
2023-02-19T15:58:09.199Z,1.45
2023-02-19T16:00:41.040Z,1.70
2023-02-19T16:03:22.954Z,3.40
2023-02-19T16:06:04.759Z,1.75
2023-02-19T16:08:36.514Z,1.80
2023-02-19T16:11:07.253Z,1.85
2023-02-19T16:13:34.714Z,2.10
2023-02-19T16:16:06.706Z,2.10
2023-02-19T16:18:33.468Z,2.58
2023-02-19T16:21:00.435Z,3.08
2023-02-19T16:23:27.327Z,3.42
2023-02-19T16:26:01.695Z,2.40
2023-02-19T16:28:29.710Z,3.05
2023-02-19T16:30:57.464Z,2.85
2023-02-19T16:33:35.665Z,2.92
2023-02-19T16:36:28.811Z,2.92
2023-02-19T16:38:58.927Z,3.35
2023-02-19T16:43:51.711Z,3.03
2023-02-19T16:46:18.335Z,3.75
2023-02-19T16:48:44.816Z,3.58
2023-02-19T16:51:17.429Z,3.78
2023-02-19T16:53:43.861Z,3.50
2023-02-19T16:56:16.269Z,3.08
2023-02-19T16:58:42.754Z,3.13
2023-02-19T17:01:09.767Z,3.65
2023-02-19T17:03:38.101Z,3.80
2023-02-19T17:06:04.943Z,4.32
2023-02-19T17:08:36.941Z,3.40
2023-02-19T17:11:06.716Z,3.53
2023-02-19T17:13:33.306Z,3.20
2023-02-19T17:15:59.809Z,2.85
2023-02-19T17:18:26.328Z,3.15
2023-02-19T17:21:12.537Z,3.30
2023-02-19T17:23:39.136Z,3.00
2023-02-19T17:26:05.536Z,2.90
2023-02-19T17:28:31.968Z,3.00
2023-02-19T17:30:58.416Z,3.20
2023-02-19T17:33:24.865Z,2.80
2023-02-19T17:35:51.424Z,3.20
2023-02-19T17:38:17.862Z,3.30
2023-02-19T17:40:45.191Z,3.05
2023-02-19T17:43:11.591Z,3.08
2023-02-19T17:45:38.421Z,2.30
2023-02-19T17:48:05.071Z,2.50
2023-02-19T17:50:32.013Z,2.70
2023-02-19T17:52:58.854Z,2.25
2023-02-19T17:55:26.595Z,2.28
2023-02-19T17:57:53.383Z,2.65
2023-02-19T18:00:22.835Z,2.42
2023-02-19T18:02:49.365Z,2.45
2023-02-19T18:05:16.151Z,4.00
2023-02-19T18:07:43.404Z,4.20
2023-02-19T18:10:10.493Z,4.75
2023-02-19T18:12:38.213Z,3.80
2023-02-19T18:15:05.226Z,3.25
2023-02-19T18:17:31.668Z,3.92
2023-02-19T18:19:58.081Z,3.40
2023-02-19T18:22:24.735Z,2.92
2023-02-19T18:24:53.250Z,2.65
2023-02-19T18:35:40.692Z,2.72
2023-02-19T18:38:07.144Z,2.33
2023-02-19T18:40:33.750Z,2.47
2023-02-19T18:43:00.292Z,2.88
2023-02-19T18:45:27.535Z,3.55
2023-02-19T18:47:54.174Z,3.33
2023-02-19T18:50:20.620Z,2.83
2023-02-19T18:52:47.150Z,2.97
2023-02-19T18:55:13.673Z,2.30
2023-02-19T18:57:40.106Z,2.22
2023-02-19T19:00:07.566Z,2.20
2023-02-19T19:02:48.272Z,2.72
2023-02-19T19:05:22.670Z,2.15
2023-02-19T19:07:51.026Z,1.90
2023-02-19T19:10:18.134Z,2.40
2023-02-19T19:12:44.660Z,2.45
2023-02-19T19:15:11.239Z,1.85
2023-02-19T19:17:38.709Z,2.30
2023-02-19T19:20:05.763Z,1.95
2023-02-19T19:22:32.158Z,2.33
2023-02-19T19:24:59.930Z,2.10
2023-02-19T19:27:26.355Z,2.58
2023-02-19T19:29:52.813Z,2.47
2023-02-19T19:32:19.410Z,2.10
2023-02-19T19:34:45.887Z,2.25
2023-02-19T19:37:12.415Z,2.30
2023-02-19T19:39:38.814Z,2.00
2023-02-19T19:42:07.785Z,2.38
2023-02-19T19:44:34.245Z,2.33
2023-02-19T19:47:00.680Z,3.00
2023-02-19T19:49:27.107Z,2.50
2023-02-19T19:51:53.490Z,2.75
2023-02-19T19:54:20.986Z,2.85
2023-02-19T19:56:47.786Z,3.00
2023-02-19T19:59:16.025Z,2.70
2023-02-19T20:01:53.634Z,3.35
2023-02-19T20:04:22.572Z,3.55
2023-02-19T20:06:49.461Z,4.68
2023-02-19T20:09:16.733Z,4.03
2023-02-19T20:11:47.708Z,4.13
2023-02-19T20:14:14.635Z,4.18
2023-02-19T20:16:42.671Z,5.00
2023-02-19T20:19:10.411Z,4.38
2023-02-19T20:26:08.819Z,4.50
2023-02-19T20:28:35.273Z,5.50
2023-02-19T20:31:01.748Z,5.10
2023-02-19T20:33:28.242Z,4.45
2023-02-19T20:35:56.683Z,4.90
2023-02-19T20:38:23.235Z,4.53
2023-02-19T20:52:06.739Z,6.03
2023-02-19T20:54:34.404Z,6.68
2023-02-19T20:57:03.312Z,7.28
2023-02-19T21:06:31.967Z,6.07
2023-02-19T21:08:58.608Z,5.75
2023-02-19T21:22:24.154Z,7.90
2023-02-19T21:24:53.000Z,7.53
2023-02-19T21:27:19.992Z,7.22
2023-02-19T21:29:47.508Z,7.78
2023-02-19T21:32:14.174Z,6.97
2023-02-19T21:34:40.704Z,7.85
2023-02-19T21:37:07.214Z,6.47
2023-02-19T21:43:46.232Z,6.03
2023-02-19T21:46:18.111Z,5.97
2023-02-19T21:48:47.818Z,5.03
2023-02-19T21:51:14.476Z,5.95
2023-02-19T21:53:40.853Z,4.68
2023-02-19T21:56:08.410Z,4.70
2023-02-19T21:58:34.958Z,5.60
2023-02-19T22:01:01.655Z,4.40
2023-02-19T22:03:28.256Z,5.05
2023-02-19T22:05:55.021Z,4.50
2023-02-19T22:08:21.420Z,4.25
2023-02-19T22:10:47.829Z,5.13
2023-02-19T22:13:14.207Z,4.25
2023-02-19T22:15:40.633Z,4.63
2023-02-19T22:18:07.036Z,4.47
2023-02-19T22:20:34.612Z,4.13
2023-02-19T22:23:01.014Z,4.63
2023-02-19T22:25:27.395Z,4.40
2023-02-19T22:27:53.830Z,4.18
2023-02-19T22:30:20.619Z,4.88
2023-02-19T22:32:47.144Z,4.53
2023-02-19T22:35:15.670Z,4.85
2023-02-19T22:37:42.250Z,5.22
2023-02-19T22:40:08.950Z,4.55
2023-02-19T22:42:36.094Z,4.63
2023-02-19T22:45:02.703Z,5.03
2023-02-19T22:47:29.131Z,5.95
2023-02-19T22:49:55.518Z,4.63
2023-02-19T22:52:22.062Z,5.10
2023-02-19T22:54:48.438Z,5.22
2023-02-19T22:57:14.870Z,5.35
2023-02-19T22:59:41.267Z,5.03
2023-02-19T23:02:07.657Z,5.03
2023-02-19T23:04:34.284Z,4.50
2023-02-19T23:07:00.940Z,4.75
2023-02-19T23:09:28.680Z,5.13
2023-02-19T23:12:06.335Z,4.60
2023-02-19T23:14:32.827Z,5.38
2023-02-19T23:16:59.403Z,4.68
2023-02-19T23:19:26.386Z,5.18
2023-02-19T23:21:53.239Z,5.13
2023-02-19T23:24:20.143Z,5.68
2023-02-19T23:26:49.226Z,5.05
2023-02-19T23:29:21.034Z,5.97
2023-02-19T23:31:47.637Z,5.53
2023-02-19T23:34:14.640Z,5.18
2023-02-19T23:36:42.299Z,5.75
2023-02-19T23:39:13.541Z,6.50
2023-02-19T23:41:45.922Z,5.47
2023-02-19T23:44:12.334Z,7.07
2023-02-19T23:46:38.794Z,6.32
2023-02-19T23:49:05.255Z,5.55
2023-02-19T23:51:31.709Z,6.25
2023-02-19T23:53:58.178Z,6.15
2023-02-19T23:56:28.953Z,6.03
2023-02-19T23:58:56.025Z,6.30
